Time;durP1;ratioP1;P1;durP2;ratioP2;P2;SDS_P1;SDS_P2;PMS_P1;PMS_P2;Temp;Humidity;BMP_temperature;BMP_pressure;BME280_temperature;BME280_humidity;BME280_pressure;Samples;Min_cycle;Max_cycle;Signal;HPM_P1;HPM_P2
2023/12/07 00:01:09;;;;;;;4.95;3.20;;;;;;;11.79;50.39;96288.53;5080369;28;20477;-29
2023/12/07 00:03:35;;;;;;;4.72;2.80;;;;;;;11.77;50.60;96299.06;5079001;28;20023;-27
2023/12/07 00:06:01;;;;;;;4.40;2.95;;;;;;;11.88;50.03;96289.38;5082194;28;20046;-27
2023/12/07 00:08:26;;;;;;;4.57;3.08;;;;;;;11.95;50.21;96295.78;5082932;28;20471;-26
2023/12/07 00:10:52;;;;;;;3.75;2.70;;;;;;;11.81;49.90;96299.72;5081757;28;20119;-27
2023/12/07 00:13:17;;;;;;;5.50;3.05;;;;;;;11.64;50.64;96296.34;5082742;28;20393;-27
2023/12/07 00:15:43;;;;;;;4.00;2.90;;;;;;;11.96;49.72;96295.34;5084326;28;20078;-27
2023/12/07 00:18:09;;;;;;;5.28;3.00;;;;;;;11.91;50.09;96295.91;5080190;28;20024;-26
2023/12/07 00:20:34;;;;;;;4.50;3.20;;;;;;;11.92;49.71;96296.66;5080437;28;20024;-26
2023/12/07 00:22:59;;;;;;;4.07;2.45;;;;;;;11.86;49.93;96307.34;5072731;28;20050;-27
2023/12/07 00:25:25;;;;;;;4.53;2.47;;;;;;;11.98;49.57;96308.50;5087402;28;20024;-26
2023/12/07 00:27:51;;;;;;;3.72;2.53;;;;;;;11.98;49.55;96298.41;5085552;28;20026;-26
2023/12/07 00:30:16;;;;;;;4.07;2.65;;;;;;;12.03;49.87;96305.97;5074171;28;20017;-27
2023/12/07 00:32:43;;;;;;;5.53;2.60;;;;;;;11.92;49.89;96299.38;5079164;28;20375;-27
2023/12/07 00:35:10;;;;;;;3.10;2.65;;;;;;;11.87;50.12;96292.53;5080227;28;20025;-27
2023/12/07 00:37:35;;;;;;;4.50;2.80;;;;;;;11.71;50.27;96295.38;5079929;28;20024;-27
2023/12/07 00:40:01;;;;;;;4.15;2.42;;;;;;;11.86;50.01;96291.78;5086624;28;20098;-27
2023/12/07 00:42:27;;;;;;;4.05;2.60;;;;;;;11.87;49.67;96296.00;5085283;28;20070;-27
2023/12/07 00:44:53;;;;;;;5.13;2.47;;;;;;;11.90;50.12;96296.34;5086293;28;20533;-27
2023/12/07 00:47:18;;;;;;;4.95;2.75;;;;;;;11.80;49.68;96298.19;5086773;28;20031;-27
2023/12/07 00:49:43;;;;;;;3.92;2.50;;;;;;;11.83;50.01;96292.66;5084985;28;20024;-28
2023/12/07 00:52:09;;;;;;;3.90;2.70;;;;;;;11.83;49.81;96298.09;5088959;28;20393;-27
2023/12/07 00:54:34;;;;;;;3.88;3.13;;;;;;;11.76;49.92;96302.97;5083224;28;20016;-29
2023/12/07 00:57:00;;;;;;;3.80;2.55;;;;;;;11.73;50.15;96298.41;5090541;28;20021;-26
2023/12/07 00:59:25;;;;;;;4.43;3.00;;;;;;;11.78;49.87;96295.16;5083159;28;20425;-27
2023/12/07 01:01:51;;;;;;;3.58;2.55;;;;;;;11.76;49.93;96306.44;5083455;28;20103;-27
2023/12/07 01:04:17;;;;;;;4.63;3.00;;;;;;;11.88;49.86;96305.69;5063728;28;20021;-27
2023/12/07 01:06:43;;;;;;;5.30;3.00;;;;;;;11.79;49.99;96302.88;5057053;28;20021;-27
2023/12/07 01:09:13;;;;;;;3.80;2.72;;;;;;;11.81;49.90;96307.88;5085941;28;20387;-26
2023/12/07 01:11:41;;;;;;;3.63;2.63;;;;;;;11.83;49.87;96297.34;5086422;28;20028;-27
2023/12/07 01:14:07;;;;;;;4.50;2.80;;;;;;;11.73;49.69;96299.16;5083225;28;20051;-27
2023/12/07 01:16:32;;;;;;;3.40;2.47;;;;;;;11.65;49.86;96295.13;5082702;28;20044;-27
2023/12/07 01:18:58;;;;;;;4.30;2.63;;;;;;;11.83;49.30;96302.75;5082364;28;20491;-27
2023/12/07 01:21:23;;;;;;;3.90;2.40;;;;;;;11.86;49.74;96299.94;5085519;28;20026;-26
2023/12/07 01:23:49;;;;;;;4.25;2.53;;;;;;;11.81;49.67;96300.47;5079775;28;20476;-28
2023/12/07 01:26:14;;;;;;;5.00;2.60;;;;;;;11.73;49.95;96296.44;5057581;28;20060;-28
2023/12/07 01:28:40;;;;;;;3.72;2.45;;;;;;;11.72;50.19;96300.38;5079416;28;20427;-28
2023/12/07 01:31:05;;;;;;;4.88;3.00;;;;;;;11.78;49.53;96306.03;5085365;28;20402;-27
2023/12/07 01:33:31;;;;;;;4.43;2.75;;;;;;;11.76;49.66;96303.75;5089879;28;20024;-27
2023/12/07 01:35:56;;;;;;;4.55;2.70;;;;;;;11.69;49.70;96295.03;5082256;28;20439;-27
2023/12/07 01:38:22;;;;;;;4.53;2.92;;;;;;;11.70;49.55;96296.56;5074942;28;20031;-27
2023/12/07 01:40:48;;;;;;;5.10;3.13;;;;;;;11.61;50.34;96297.22;5082204;28;20111;-26
2023/12/07 01:43:14;;;;;;;4.07;3.00;;;;;;;11.64;50.12;96299.03;5082531;28;20023;-27
2023/12/07 01:45:39;;;;;;;5.32;3.28;;;;;;;11.71;49.64;96295.38;5081973;28;20024;-27
2023/12/07 01:48:06;;;;;;;5.65;3.50;;;;;;;11.87;49.48;96298.72;5081609;28;20044;-26
2023/12/07 01:50:33;;;;;;;5.72;3.28;;;;;;;11.76;49.46;96302.97;5081967;28;20020;-26
2023/12/07 01:53:01;;;;;;;5.47;3.45;;;;;;;11.49;50.53;96301.47;5084992;28;20051;-27
2023/12/07 01:55:30;;;;;;;5.00;3.17;;;;;;;11.71;49.90;96307.00;5085455;28;20476;-27
2023/12/07 01:57:55;;;;;;;5.78;3.70;;;;;;;11.56;50.16;96311.34;5084648;28;20043;-26
2023/12/07 02:00:21;;;;;;;5.03;3.78;;;;;;;11.75;49.64;96310.38;5087490;28;20381;-27
2023/12/07 02:02:47;;;;;;;5.32;3.30;;;;;;;11.66;49.94;96309.47;5081604;28;20500;-27
2023/12/07 02:05:14;;;;;;;5.18;3.25;;;;;;;11.79;49.77;96319.19;5088338;28;20031;-27
2023/12/07 02:07:43;;;;;;;5.95;3.40;;;;;;;11.71;49.90;96312.44;5081402;28;20172;-29
2023/12/07 02:10:10;;;;;;;7.32;3.22;;;;;;;11.82;49.61;96312.88;5077161;28;20024;-27
2023/12/07 02:12:36;;;;;;;4.50;2.80;;;;;;;11.57;50.37;96317.53;5079666;28;20020;-27
2023/12/07 02:15:02;;;;;;;5.38;3.22;;;;;;;11.75;49.89;96323.94;5089221;28;20489;-26
2023/12/07 02:17:49;;;;;;;4.75;2.80;;;;;;;11.55;50.06;96315.25;5081267;28;20024;-26
2023/12/07 02:20:36;;;;;;;3.17;2.42;;;;;;;11.81;49.52;96316.78;5088816;28;20055;-26
2023/12/07 02:23:04;;;;;;;5.10;2.28;;;;;;;11.78;49.29;96327.75;5081607;28;20028;-26
2023/12/07 02:25:37;;;;;;;5.57;2.78;;;;;;;11.98;49.11;96324.81;5081312;28;20019;-27
2023/12/07 02:28:03;;;;;;;4.68;2.47;;;;;;;12.02;48.76;96325.44;5088765;28;20109;-27
2023/12/07 02:30:28;;;;;;;3.38;2.33;;;;;;;11.87;49.19;96325.13;5083181;28;20107;-27
2023/12/07 02:32:54;;;;;;;2.72;2.08;;;;;;;11.87;49.32;96325.13;5079548;28;20044;-27
2023/12/07 02:35:19;;;;;;;3.08;2.30;;;;;;;11.68;49.83;96332.31;5088921;28;20032;-27
2023/12/07 02:37:48;;;;;;;3.22;1.88;;;;;;;11.83;49.30;96330.69;5084635;28;20024;-28
2023/12/07 02:40:18;;;;;;;2.92;2.20;;;;;;;11.71;49.61;96323.28;5084286;28;20410;-27
2023/12/07 02:42:44;;;;;;;3.75;2.25;;;;;;;11.77;49.66;96329.72;5073535;28;20485;-27
2023/12/07 02:45:12;;;;;;;3.47;2.53;;;;;;;11.83;49.19;96321.78;5081673;28;20020;-27
2023/12/07 02:47:37;;;;;;;3.45;2.40;;;;;;;11.69;49.71;96322.19;5080985;28;20093;-27
2023/12/07 02:50:05;;;;;;;3.88;2.17;;;;;;;11.86;49.49;96324.41;5081011;28;20028;-28
2023/12/07 02:52:31;;;;;;;3.75;2.72;;;;;;;11.75;49.41;96328.59;5080837;28;20020;-27
2023/12/07 02:54:56;;;;;;;3.67;2.40;;;;;;;11.79;49.33;96327.31;5080691;28;20078;-26
2023/12/07 02:57:22;;;;;;;3.63;2.10;;;;;;;11.83;49.16;96324.50;5079553;28;20056;-27
2023/12/07 02:59:47;;;;;;;4.13;2.03;;;;;;;11.59;49.64;96323.28;5075230;28;20027;-27
2023/12/07 03:02:13;;;;;;;2.97;2.25;;;;;;;11.54;49.85;96340.88;5083690;28;20048;-26
2023/12/07 03:04:38;;;;;;;3.13;2.03;;;;;;;11.69;49.40;96338.50;5083535;28;20023;-27
2023/12/07 03:07:05;;;;;;;2.83;2.08;;;;;;;11.84;49.34;96343.09;5080925;28;20020;-27
2023/12/07 03:09:32;;;;;;;3.03;1.88;;;;;;;11.72;49.48;96345.78;5086295;28;20020;-26
2023/12/07 03:11:59;;;;;;;3.90;2.10;;;;;;;11.69;49.51;96352.09;5075081;28;20047;-26
2023/12/07 03:14:24;;;;;;;3.17;2.22;;;;;;;11.81;49.68;96354.81;5080276;28;20458;-27
2023/12/07 03:16:49;;;;;;;3.22;1.90;;;;;;;11.74;49.31;96356.97;5080404;28;20030;-28
2023/12/07 03:19:15;;;;;;;3.28;2.25;;;;;;;11.86;49.24;96357.00;5081144;28;20016;-27
2023/12/07 03:21:42;;;;;;;3.00;1.83;;;;;;;11.81;49.43;96362.22;5078905;28;20056;-28
2023/12/07 03:24:09;;;;;;;1.92;1.27;;;;;;;11.86;49.01;96367.13;5083301;28;20110;-27
2023/12/07 03:26:35;;;;;;;3.58;1.50;;;;;;;11.98;48.95;96369.06;5083447;28;20020;-27
2023/12/07 03:29:05;;;;;;;3.63;1.33;;;;;;;11.87;49.21;96372.09;5083613;28;20368;-27
2023/12/07 03:31:30;;;;;;;2.63;1.55;;;;;;;11.85;48.97;96371.78;5076467;28;20024;-27
2023/12/07 03:33:56;;;;;;;2.97;1.40;;;;;;;11.82;49.00;96367.22;5060346;28;20118;-27
2023/12/07 03:36:22;;;;;;;2.28;1.35;;;;;;;12.04;48.53;96363.81;5081120;28;20027;-27
2023/12/07 03:38:48;;;;;;;2.25;1.30;;;;;;;12.05;48.18;96371.53;5076927;28;20512;-27
2023/12/07 03:41:14;;;;;;;2.53;1.27;;;;;;;11.80;48.93;96372.31;5076570;28;20028;-26
2023/12/07 03:43:41;;;;;;;1.77;1.23;;;;;;;11.88;48.46;96376.34;5072553;28;20473;-26
2023/12/07 03:46:08;;;;;;;1.88;1.35;;;;;;;11.99;48.43;96370.56;5085746;28;20109;-27
2023/12/07 03:48:34;;;;;;;1.60;1.20;;;;;;;11.91;48.43;96379.38;5082336;28;20485;-26
2023/12/07 03:51:00;;;;;;;1.52;1.08;;;;;;;11.87;48.73;96371.31;5084075;28;20114;-27
2023/12/07 03:53:26;;;;;;;3.75;1.40;;;;;;;11.87;48.44;96372.09;5076210;28;20470;-26
2023/12/07 03:55:52;;;;;;;1.98;1.10;;;;;;;12.03;48.50;96373.16;5079960;28;20039;-26
2023/12/07 03:58:17;;;;;;;3.08;0.98;;;;;;;11.84;48.70;96370.25;5072766;28;20020;-26
2023/12/07 04:00:44;;;;;;;2.13;1.27;;;;;;;11.83;49.21;96376.13;5072698;28;20159;-27
2023/12/07 04:03:10;;;;;;;2.00;1.33;;;;;;;11.84;49.00;96370.25;5080783;28;20025;-26
2023/12/07 04:05:35;;;;;;;1.92;1.15;;;;;;;11.92;48.46;96376.22;5079532;28;20031;-26
2023/12/07 04:08:00;;;;;;;1.70;1.10;;;;;;;11.73;49.03;96386.09;5080466;28;20388;-27
2023/12/07 04:10:26;;;;;;;4.35;1.90;;;;;;;11.82;48.76;96393.63;5077741;28;20028;-26
2023/12/07 04:12:52;;;;;;;4.43;2.53;;;;;;;11.73;49.07;96396.97;5082954;28;20039;-27
2023/12/07 04:15:21;;;;;;;6.30;4.05;;;;;;;11.48;48.96;96396.94;5077544;28;20355;-27
2023/12/07 04:17:48;;;;;;;5.70;4.00;;;;;;;11.41;49.85;96386.28;5087635;28;20031;-26
2023/12/07 04:20:14;;;;;;;7.05;3.92;;;;;;;11.41;49.55;96397.13;5078830;28;20055;-27
2023/12/07 04:22:41;;;;;;;8.48;4.60;;;;;;;11.51;49.48;96393.34;5081977;28;20021;-26
2023/12/07 04:25:09;;;;;;;6.40;4.32;;;;;;;11.43;49.32;96383.91;5091084;28;20020;-27
2023/12/07 04:27:34;;;;;;;5.47;3.85;;;;;;;11.48;49.07;96396.94;5087158;28;20023;-27
2023/12/07 04:30:00;;;;;;;4.93;3.00;;;;;;;11.52;48.80;96392.16;5080070;28;20025;-27
2023/12/07 04:32:25;;;;;;;3.92;2.78;;;;;;;11.51;49.28;96390.63;5084056;28;20025;-27
2023/12/07 04:34:51;;;;;;;5.22;2.42;;;;;;;11.55;48.74;96396.72;5088331;28;20378;-27
2023/12/07 04:37:17;;;;;;;5.65;3.33;;;;;;;11.74;48.18;96403.16;5086050;28;20081;-26
2023/12/07 04:39:42;;;;;;;17.60;8.00;;;;;;;11.69;48.33;96401.75;5083304;28;20082;-27
2023/12/07 04:42:08;;;;;;;18.92;8.80;;;;;;;11.65;48.55;96401.06;5081816;28;20042;-27
2023/12/07 04:44:33;;;;;;;17.27;7.45;;;;;;;11.56;48.98;96403.69;5084222;28;20024;-26
2023/12/07 04:46:59;;;;;;;15.43;6.60;;;;;;;11.72;48.54;96409.03;5080514;28;20016;-26
2023/12/07 04:49:26;;;;;;;8.63;4.35;;;;;;;11.42;49.22;96409.53;5086613;28;20044;-26
2023/12/07 04:51:52;;;;;;;7.72;4.32;;;;;;;11.19;49.85;96401.66;5090922;28;20034;-27
2023/12/07 04:54:17;;;;;;;9.20;5.68;;;;;;;11.05;50.64;96409.00;5082746;28;20017;-27
2023/12/07 04:56:43;;;;;;;7.70;4.90;;;;;;;11.07;50.80;96414.00;5090230;28;20020;-26
2023/12/07 04:59:10;;;;;;;7.32;4.55;;;;;;;11.23;50.23;96419.38;5075856;28;20017;-28
2023/12/07 05:01:38;;;;;;;8.02;5.10;;;;;;;11.00;50.81;96417.66;5090499;28;20024;-27
2023/12/07 05:04:04;;;;;;;8.95;5.22;;;;;;;10.90;51.06;96423.38;5083141;28;20100;-27
2023/12/07 05:06:31;;;;;;;7.90;5.25;;;;;;;10.84;51.09;96425.84;5081616;28;20102;-26
2023/12/07 05:08:56;;;;;;;8.20;5.45;;;;;;;11.06;50.69;96421.38;5077106;28;20493;-27
2023/12/07 05:11:22;;;;;;;7.78;4.53;;;;;;;10.96;51.05;96422.44;5082427;28;20052;-26
2023/12/07 05:13:47;;;;;;;8.98;5.63;;;;;;;11.10;50.53;96426.72;5082738;28;20018;-27
2023/12/07 05:16:13;;;;;;;10.48;6.07;;;;;;;10.98;50.74;96427.44;5082318;28;20382;-27
2023/12/07 05:18:39;;;;;;;8.13;4.72;;;;;;;10.72;51.15;96423.84;5082608;28;20099;-27
2023/12/07 05:21:04;;;;;;;8.13;4.90;;;;;;;11.09;50.56;96436.06;5082930;28;20359;-26
2023/12/07 05:23:30;;;;;;;6.78;3.95;;;;;;;11.07;50.13;96433.75;5078757;28;20035;-27
2023/12/07 05:25:55;;;;;;;6.28;4.22;;;;;;;10.81;50.72;96437.56;5085877;28;20026;-26
2023/12/07 05:28:21;;;;;;;7.22;4.22;;;;;;;10.99;50.46;96440.56;5077321;28;20561;-27
2023/12/07 05:30:46;;;;;;;5.82;3.75;;;;;;;11.12;50.03;96443.34;5085601;28;20031;-27
2023/12/07 05:33:12;;;;;;;5.63;3.47;;;;;;;11.06;49.96;96453.94;5084639;28;20381;-26
2023/12/07 05:35:38;;;;;;;8.25;3.70;;;;;;;11.03;49.96;96460.22;5077747;28;20034;-28
2023/12/07 05:38:04;;;;;;;5.65;3.35;;;;;;;11.15;50.01;96462.22;5079965;28;20074;-26
2023/12/07 05:40:29;;;;;;;6.25;3.80;;;;;;;10.96;49.96;96459.66;5083799;28;20052;-27
2023/12/07 05:42:55;;;;;;;5.63;3.50;;;;;;;11.06;49.61;96464.03;5081424;28;20047;-27
2023/12/07 05:45:20;;;;;;;18.25;14.60;;;;;;;11.16;49.66;96463.75;5082152;28;20092;-27
2023/12/07 05:47:46;;;;;;;21.90;19.55;;;;;;;11.09;50.00;96468.63;5084103;28;20041;-28
2023/12/07 05:50:11;;;;;;;19.85;17.80;;;;;;;11.05;50.19;96468.69;5085118;28;20016;-27
2023/12/07 05:52:37;;;;;;;16.05;14.35;;;;;;;11.02;49.96;96463.38;5084191;28;20062;-26
2023/12/07 05:55:04;;;;;;;9.55;7.40;;;;;;;10.77;50.47;96472.91;5085351;28;20020;-26
2023/12/07 05:57:31;;;;;;;9.20;6.82;;;;;;;10.88;49.96;96472.63;5085763;28;20024;-27
2023/12/07 05:59:56;;;;;;;7.60;5.65;;;;;;;10.76;49.71;96479.53;5083938;28;20027;-27
2023/12/07 06:02:22;;;;;;;8.07;5.22;;;;;;;10.89;49.66;96474.16;5084725;28;20031;-27
2023/12/07 06:04:47;;;;;;;6.20;4.72;;;;;;;10.91;49.54;96473.72;5084691;28;20040;-26
2023/12/07 06:07:12;;;;;;;6.40;4.53;;;;;;;11.04;49.30;96469.13;5081949;28;20016;-27
2023/12/07 06:09:38;;;;;;;5.10;4.03;;;;;;;10.89;49.27;96470.69;5088401;28;20465;-27
2023/12/07 06:12:04;;;;;;;5.72;3.90;;;;;;;10.81;49.89;96475.53;5082853;28;20024;-28
2023/12/07 06:14:29;;;;;;;7.13;4.55;;;;;;;10.82;49.76;96470.88;5079343;28;20111;-26
2023/12/07 06:16:55;;;;;;;9.00;5.22;;;;;;;10.62;50.47;96477.19;5083934;28;20031;-26
2023/12/07 06:19:21;;;;;;;6.78;4.55;;;;;;;10.65;50.29;96478.25;5084013;28;20020;-27
2023/12/07 06:21:46;;;;;;;7.45;4.43;;;;;;;10.85;49.98;96481.66;5084294;28;20121;-27
2023/12/07 06:24:14;;;;;;;5.93;3.90;;;;;;;10.80;50.12;96482.91;5074997;28;20500;-27
2023/12/07 06:26:39;;;;;;;7.38;4.10;;;;;;;10.83;50.00;96494.09;5081809;28;20501;-26
2023/12/07 06:29:07;;;;;;;7.20;4.13;;;;;;;10.75;50.35;96488.88;5081097;28;20144;-26
2023/12/07 06:31:33;;;;;;;6.85;4.82;;;;;;;10.83;50.10;96488.69;5084006;28;20024;-26
2023/12/07 06:34:00;;;;;;;8.02;4.75;;;;;;;10.58;50.67;96500.13;5067699;28;20024;-27
2023/12/07 06:36:26;;;;;;;10.07;6.82;;;;;;;10.91;49.54;96490.78;5082281;28;20366;-26
2023/12/07 06:38:53;;;;;;;13.35;7.45;;;;;;;10.73;49.93;96506.75;5083489;28;20418;-27
2023/12/07 06:41:18;;;;;;;9.30;5.72;;;;;;;10.46;51.01;96503.53;5075953;28;20136;-27
2023/12/07 06:43:44;;;;;;;9.60;4.95;;;;;;;10.91;49.85;96498.16;5083983;28;20226;-26
2023/12/07 06:46:16;;;;;;;6.63;4.28;;;;;;;10.89;50.28;96505.94;5083921;28;20073;-26
2023/12/07 06:48:41;;;;;;;6.10;3.97;;;;;;;11.03;50.04;96505.59;5080957;28;20055;-26
2023/12/07 06:51:07;;;;;;;6.47;4.00;;;;;;;10.82;50.52;96511.56;5086174;28;20107;-26
2023/12/07 06:53:33;;;;;;;6.15;3.80;;;;;;;10.89;50.01;96517.56;5083119;28;20020;-27
2023/12/07 06:55:59;;;;;;;5.72;3.63;;;;;;;10.69;50.69;96517.69;5073570;28;20055;-27
2023/12/07 06:58:24;;;;;;;6.35;4.18;;;;;;;10.58;51.20;96522.59;5081284;28;20117;-26
2023/12/07 07:00:50;;;;;;;9.05;4.65;;;;;;;10.76;50.48;96524.88;5082007;28;20023;-27
2023/12/07 07:03:16;;;;;;;7.85;5.35;;;;;;;10.92;50.03;96515.97;5084150;28;20029;-26
2023/12/07 07:05:42;;;;;;;7.47;5.00;;;;;;;10.84;50.13;96525.47;5083204;28;20019;-26
2023/12/07 07:08:08;;;;;;;9.93;4.70;;;;;;;10.74;49.91;96530.75;5083164;28;20111;-27
2023/12/07 07:10:34;;;;;;;6.65;4.15;;;;;;;10.56;50.39;96526.91;5084030;28;20471;-27
2023/12/07 07:13:04;;;;;;;5.72;4.05;;;;;;;10.64;50.31;96536.41;5075210;28;20020;-27
2023/12/07 07:15:30;;;;;;;5.07;3.53;;;;;;;10.80;50.03;96539.13;5079586;28;20081;-26
2023/12/07 07:17:56;;;;;;;6.22;3.33;;;;;;;10.91;50.14;96533.44;5080702;28;20028;-26
2023/12/07 07:20:22;;;;;;;5.20;3.38;;;;;;;10.73;50.38;96536.59;5081059;28;20034;-26
2023/12/07 07:22:47;;;;;;;5.32;3.50;;;;;;;10.53;50.93;96552.91;5080556;28;20117;-26
2023/12/07 07:25:15;;;;;;;5.72;3.20;;;;;;;10.63;50.91;96543.78;5080984;28;20141;-27
2023/12/07 07:27:41;;;;;;;4.45;2.75;;;;;;;10.79;50.57;96543.78;5079032;28;20047;-27
2023/12/07 07:30:08;;;;;;;5.13;2.45;;;;;;;10.75;50.78;96542.34;5062160;28;20385;-26
2023/12/07 07:32:33;;;;;;;4.10;2.58;;;;;;;10.58;51.18;96547.00;5080965;28;21118;-26
2023/12/07 07:34:59;;;;;;;4.90;2.92;;;;;;;10.66;50.76;96540.22;5080753;28;20021;-26
2023/12/07 07:37:25;;;;;;;5.70;3.03;;;;;;;10.80;50.77;96544.53;5080506;28;20031;-26
2023/12/07 07:39:50;;;;;;;5.95;3.17;;;;;;;10.68;51.02;96532.44;5083264;28;20024;-26
2023/12/07 07:42:16;;;;;;;6.85;4.35;;;;;;;10.85;50.99;96541.34;5075918;28;20029;-27
2023/12/07 07:44:42;;;;;;;6.05;3.45;;;;;;;10.83;51.23;96543.69;5080141;28;20029;-26
2023/12/07 07:47:08;;;;;;;5.28;3.08;;;;;;;11.03;50.56;96540.88;5080568;28;20020;-27
2023/12/07 07:49:33;;;;;;;4.53;2.83;;;;;;;10.83;50.94;96542.94;5080750;28;20043;-27
2023/12/07 07:51:59;;;;;;;3.83;2.65;;;;;;;10.95;50.71;96545.72;5080835;28;20122;-28
2023/12/07 07:54:25;;;;;;;4.40;3.17;;;;;;;10.85;51.27;96554.91;5088100;28;20020;-26
2023/12/07 07:56:50;;;;;;;4.07;2.55;;;;;;;10.80;51.19;96549.97;5091729;28;20016;-26
2023/12/07 07:59:16;;;;;;;5.88;3.10;;;;;;;11.00;50.89;96558.78;5081769;28;20028;-26
2023/12/07 08:01:41;;;;;;;4.43;2.75;;;;;;;10.96;51.26;96555.41;5061273;28;20060;-26
2023/12/07 08:04:07;;;;;;;4.45;2.90;;;;;;;10.84;51.50;96552.59;5086701;28;20020;-26
2023/12/07 08:06:33;;;;;;;4.50;3.17;;;;;;;11.03;50.84;96566.06;5087555;28;20384;-26
2023/12/07 08:08:59;;;;;;;6.50;4.18;;;;;;;11.10;50.84;96559.72;5085566;28;20089;-27
2023/12/07 08:11:24;;;;;;;5.20;3.47;;;;;;;10.93;51.20;96556.25;5084547;28;20016;-27
2023/12/07 08:13:50;;;;;;;6.35;3.78;;;;;;;10.91;51.64;96558.59;5083570;28;20027;-27
2023/12/07 08:16:16;;;;;;;6.18;4.20;;;;;;;10.91;52.00;96566.75;5084242;28;20070;-26
2023/12/07 08:18:41;;;;;;;5.72;3.60;;;;;;;10.70;52.39;96575.41;5082569;28;20465;-28
2023/12/07 08:21:08;;;;;;;6.93;3.95;;;;;;;10.83;52.25;96581.69;5078840;28;20149;-28
2023/12/07 08:23:35;;;;;;;9.15;5.35;;;;;;;11.01;51.91;96579.28;5087169;28;20024;-27
2023/12/07 08:26:01;;;;;;;9.35;5.10;;;;;;;10.58;52.69;96584.97;5086944;28;20031;-26
2023/12/07 08:28:27;;;;;;;7.30;4.60;;;;;;;10.82;52.26;96580.16;5091110;28;20020;-27
2023/12/07 08:30:52;;;;;;;5.90;3.65;;;;;;;10.76;52.31;96587.25;5083711;28;20389;-26
2023/12/07 08:33:17;;;;;;;4.78;3.05;;;;;;;10.75;52.47;96585.75;5091101;28;20028;-26
2023/12/07 08:35:43;;;;;;;5.78;3.78;;;;;;;11.01;51.79;96594.81;5061702;28;20062;-27
2023/12/07 08:38:08;;;;;;;8.60;3.47;;;;;;;10.77;52.84;96589.56;5080169;28;20020;-27
2023/12/07 08:40:34;;;;;;;6.72;4.07;;;;;;;10.99;52.37;96592.53;5082915;28;20034;-27
2023/12/07 08:42:59;;;;;;;9.32;5.50;;;;;;;11.12;51.76;96598.81;5088213;28;20017;-26
2023/12/07 08:45:25;;;;;;;11.85;6.38;;;;;;;11.16;52.02;96591.34;5085829;28;20128;-27
2023/12/07 08:47:50;;;;;;;7.78;4.70;;;;;;;11.17;52.17;96589.38;5078750;28;20016;-27
2023/12/07 08:50:15;;;;;;;7.60;4.47;;;;;;;11.02;52.47;96599.81;5080546;28;20038;-26
2023/12/07 08:52:41;;;;;;;7.32;3.83;;;;;;;11.41;51.32;96592.66;5083483;28;20488;-26
2023/12/07 08:55:07;;;;;;;7.20;4.43;;;;;;;12.42;49.18;96598.41;5083076;28;20454;-27
2023/12/07 08:57:32;;;;;;;8.27;5.15;;;;;;;17.18;38.09;96599.06;5082846;28;20073;-26
2023/12/07 08:59:59;;;;;;;7.45;4.40;;;;;;;18.10;36.03;96597.16;5085466;28;20523;-26
2023/12/07 09:02:25;;;;;;;6.45;4.55;;;;;;;20.23;32.12;96600.91;5086228;28;20031;-28
2023/12/07 09:04:51;;;;;;;6.45;4.18;;;;;;;21.33;30.22;96599.53;5084451;28;20103;-27
2023/12/07 09:07:17;;;;;;;5.32;4.50;;;;;;;22.55;28.56;96605.44;5080222;28;20028;-27
2023/12/07 09:09:47;;;;;;;7.00;4.03;;;;;;;22.73;28.12;96603.44;5086552;28;20090;-27
2023/12/07 09:12:14;;;;;;;5.72;3.90;;;;;;;23.56;26.72;96616.44;5085489;28;20127;-27
2023/12/07 09:14:40;;;;;;;5.25;3.78;;;;;;;24.54;25.42;96618.47;5086437;28;20024;-27
2023/12/07 09:17:05;;;;;;;5.70;4.20;;;;;;;23.08;27.13;96617.53;5083749;28;20378;-27
2023/12/07 09:19:31;;;;;;;7.15;5.13;;;;;;;22.37;28.30;96622.53;5082455;28;20496;-27
2023/12/07 09:21:56;;;;;;;8.45;5.90;;;;;;;23.80;26.25;96630.44;5082314;28;20029;-27
2023/12/07 09:24:22;;;;;;;9.48;6.68;;;;;;;23.70;26.33;96631.25;5082847;28;20016;-27
2023/12/07 09:26:48;;;;;;;9.00;5.70;;;;;;;23.64;26.60;96628.47;5081254;28;20019;-27
2023/12/07 09:29:14;;;;;;;6.93;4.68;;;;;;;23.19;27.25;96622.28;5084466;28;20402;-27
2023/12/07 09:31:39;;;;;;;6.63;4.50;;;;;;;23.99;25.97;96633.38;5085887;28;20020;-27
2023/12/07 09:34:05;;;;;;;7.30;4.57;;;;;;;24.23;25.73;96639.06;5086026;28;20031;-27
2023/12/07 09:36:30;;;;;;;7.68;4.75;;;;;;;21.86;28.84;96627.13;5084345;28;20024;-27
2023/12/07 09:38:55;;;;;;;6.85;4.60;;;;;;;17.74;36.02;96624.91;5088105;28;20027;-28
2023/12/07 09:41:23;;;;;;;6.57;4.65;;;;;;;16.42;39.12;96630.38;5082548;28;20371;-27
2023/12/07 09:43:49;;;;;;;6.10;4.90;;;;;;;15.27;41.98;96636.41;5085673;28;20035;-28
2023/12/07 09:46:15;;;;;;;6.97;4.55;;;;;;;14.80;43.47;96633.22;5060599;28;20024;-27
2023/12/07 09:48:44;;;;;;;6.85;4.70;;;;;;;14.34;45.27;96632.94;5089070;28;20054;-27
2023/12/07 09:51:11;;;;;;;7.22;4.70;;;;;;;14.08;46.05;96631.56;5081846;28;20452;-27
2023/12/07 09:53:39;;;;;;;5.78;4.15;;;;;;;13.90;46.93;96630.22;5082163;28;20099;-27
2023/12/07 09:56:05;;;;;;;6.20;4.53;;;;;;;13.65;47.68;96622.91;5075012;28;20062;-27
2023/12/07 09:58:31;;;;;;;7.43;4.57;;;;;;;13.53;48.71;96623.72;5082529;28;20017;-27
2023/12/07 10:00:56;;;;;;;5.07;3.78;;;;;;;13.44;48.98;96620.13;5081722;28;20476;-27
2023/12/07 10:03:23;;;;;;;7.25;4.13;;;;;;;13.29;49.50;96619.84;5082039;28;20051;-26
2023/12/07 10:06:03;;;;;;;7.47;4.88;;;;;;;12.99;50.41;96617.66;5081426;28;20131;-26
2023/12/07 10:08:31;;;;;;;8.07;5.10;;;;;;;13.04;50.47;96620.63;5081633;28;20024;-26
2023/12/07 10:11:04;;;;;;;8.90;5.28;;;;;;;13.04;50.79;96619.84;5081953;28;20024;-26
2023/12/07 10:13:31;;;;;;;8.65;5.03;;;;;;;12.79;51.83;96620.63;5080668;28;20043;-26
2023/12/07 10:16:15;;;;;;;8.68;5.25;;;;;;;12.82;52.40;96625.97;5081758;28;20461;-26
2023/12/07 10:18:49;;;;;;;9.43;4.57;;;;;;;12.80;52.28;96622.16;5081198;28;20031;-26
2023/12/07 10:21:31;;;;;;;5.93;3.90;;;;;;;12.90;51.75;96626.50;5081293;28;20027;-26
2023/12/07 10:24:53;;;;;;;7.18;4.38;;;;;;;12.59;52.52;96623.56;5081275;28;20023;-26
2023/12/07 10:27:20;;;;;;;8.30;3.85;;;;;;;12.79;52.11;96615.94;5082600;28;20153;-26
2023/12/07 10:29:49;;;;;;;7.55;4.15;;;;;;;12.62;52.72;96616.47;5084089;28;20092;-26
2023/12/07 10:32:42;;;;;;;7.43;3.88;;;;;;;12.51;52.90;96620.28;5082272;28;20024;-26
2023/12/07 10:35:45;;;;;;;5.68;3.92;;;;;;;12.52;52.90;96624.53;5080908;28;20431;-27
2023/12/07 10:38:54;;;;;;;6.22;3.55;;;;;;;12.64;52.82;96614.09;5068220;28;20124;-26
2023/12/07 10:41:39;;;;;;;4.53;3.45;;;;;;;12.53;53.14;96620.63;5089120;28;20059;-26
2023/12/07 10:44:16;;;;;;;6.03;3.83;;;;;;;12.40;54.57;96616.34;5073822;28;20023;-26
2023/12/07 10:46:50;;;;;;;7.82;3.97;;;;;;;12.49;54.59;96619.94;5083265;28;20131;-26
2023/12/07 10:56:43;;;;;;;7.63;4.03;;;;;;;12.44;55.22;96617.78;5080324;28;20039;-26
2023/12/07 10:59:11;;;;;;;7.57;5.18;;;;;;;12.59;55.08;96608.00;5080803;28;20541;-26
2023/12/07 11:01:43;;;;;;;8.50;5.25;;;;;;;12.67;55.23;96605.06;5080803;28;20028;-26
2023/12/07 11:04:14;;;;;;;9.52;5.70;;;;;;;12.37;56.17;96604.38;5073237;28;20343;-26
2023/12/07 11:06:49;;;;;;;8.38;5.32;;;;;;;12.52;56.04;96597.34;5087834;28;20097;-26
2023/12/07 11:09:36;;;;;;;9.18;6.53;;;;;;;12.56;57.04;96597.22;5084110;28;20031;-26
2023/12/07 11:12:28;;;;;;;9.63;6.10;;;;;;;12.63;57.07;96599.72;5080057;28;20118;-26
2023/12/07 11:15:00;;;;;;;10.82;6.05;;;;;;;12.49;56.52;96590.03;5081014;28;20542;-26
2023/12/07 11:17:29;;;;;;;8.73;5.40;;;;;;;12.51;56.46;96590.38;5077522;28;20077;-26
2023/12/07 11:19:54;;;;;;;10.07;6.07;;;;;;;12.42;56.38;96589.50;5083584;28;20074;-26
2023/12/07 11:22:44;;;;;;;9.55;5.68;;;;;;;12.44;56.18;96585.16;5080468;28;20020;-26
2023/12/07 11:25:29;;;;;;;8.00;5.10;;;;;;;12.47;56.30;96587.00;5079932;28;20466;-26
2023/12/07 11:28:03;;;;;;;10.55;4.90;;;;;;;12.40;56.42;96576.31;5077175;28;20048;-27
2023/12/07 11:30:36;;;;;;;7.70;4.75;;;;;;;12.57;55.73;96577.00;5075988;28;20035;-26
2023/12/07 11:33:05;;;;;;;7.03;4.60;;;;;;;12.51;55.44;96578.72;5077275;28;20025;-26
2023/12/07 11:35:33;;;;;;;6.85;4.97;;;;;;;12.38;56.29;96581.44;5081971;28;20036;-26
2023/12/07 11:38:08;;;;;;;8.75;4.50;;;;;;;12.35;56.32;96571.44;5059851;28;20028;-26
2023/12/07 11:40:44;;;;;;;6.72;4.45;;;;;;;12.46;56.11;96576.56;5081494;28;20530;-26